Time;durP1;ratioP1;P1;durP2;ratioP2;P2;SDS_P1;SDS_P2;PMS_P1;PMS_P2;Temp;Humidity;BMP_temperature;BMP_pressure;BME280_temperature;BME280_humidity;BME280_pressure;Samples;Min_cycle;Max_cycle;Signal;HPM_P1;HPM_P2
2021/12/01 00:01:33;;;;;;;16.75;2.42;;;;;;;8.84;51.96;99724.41;5074881;28;20041;-74
2021/12/01 00:04:03;;;;;;;11.52;2.33;;;;;;;8.86;51.61;99733.03;5074653;28;20044;-74
2021/12/01 00:06:30;;;;;;;10.55;3.00;;;;;;;8.84;51.56;99721.75;5074703;28;20048;-74
2021/12/01 00:08:56;;;;;;;10.75;2.33;;;;;;;8.82;51.60;99725.34;5073709;28;20119;-74
2021/12/01 00:11:23;;;;;;;11.77;2.13;;;;;;;8.84;51.77;99719.91;5073769;28;20052;-74
2021/12/01 00:13:50;;;;;;;11.25;2.05;;;;;;;8.85;51.50;99720.75;5074316;28;20037;-74
2021/12/01 00:16:16;;;;;;;12.65;2.05;;;;;;;8.80;51.52;99719.38;5074684;28;20075;-74
2021/12/01 00:18:43;;;;;;;12.05;1.85;;;;;;;8.82;51.71;99706.75;5076148;28;20059;-74
2021/12/01 00:21:09;;;;;;;15.93;2.25;;;;;;;8.87;51.59;99703.69;5076306;28;20072;-74
2021/12/01 00:23:36;;;;;;;14.43;2.08;;;;;;;8.87;51.43;99708.13;5078659;28;20048;-74
2021/12/01 00:26:04;;;;;;;14.25;2.05;;;;;;;8.72;51.88;99698.00;5078103;28;20041;-75
2021/12/01 00:28:31;;;;;;;10.60;1.80;;;;;;;8.58;52.17;99693.16;5079600;28;20506;-73
2021/12/01 00:30:59;;;;;;;9.93;2.17;;;;;;;8.69;51.88;99695.63;5078450;28;20098;-73
2021/12/01 00:33:25;;;;;;;13.00;2.30;;;;;;;8.72;52.28;99705.97;5077451;28;20558;-73
2021/12/01 00:35:54;;;;;;;11.20;1.98;;;;;;;8.69;52.12;99697.47;5079018;28;20072;-73
2021/12/01 00:38:23;;;;;;;11.98;2.17;;;;;;;8.57;52.82;99692.34;5079527;28;20044;-74
2021/12/01 00:40:50;;;;;;;15.52;2.60;;;;;;;8.55;52.65;99693.47;5077693;28;20049;-74
2021/12/01 00:43:17;;;;;;;18.98;2.80;;;;;;;8.53;52.56;99695.44;5077555;28;20067;-74
2021/12/01 00:45:56;;;;;;;16.05;2.60;;;;;;;8.42;53.19;99699.13;5078353;28;20128;-74
2021/12/01 00:48:25;;;;;;;15.45;2.50;;;;;;;8.29;53.64;99704.72;5076990;28;20048;-74
2021/12/01 00:50:52;;;;;;;11.13;1.85;;;;;;;8.53;52.77;99706.06;5076940;28;20108;-73
2021/12/01 00:53:19;;;;;;;17.25;2.83;;;;;;;8.27;53.62;99717.28;5077569;28;20479;-73
2021/12/01 00:55:46;;;;;;;19.48;3.08;;;;;;;8.27;53.86;99711.97;5076434;28;20040;-74
2021/12/01 00:58:14;;;;;;;17.90;3.35;;;;;;;8.14;54.39;99708.81;5079151;28;20048;-74
2021/12/01 01:00:42;;;;;;;14.30;2.95;;;;;;;8.45;53.54;99703.28;5078677;28;20078;-74
2021/12/01 01:03:10;;;;;;;20.98;2.35;;;;;;;8.52;53.56;99693.75;5077698;28;20045;-74
2021/12/01 01:05:37;;;;;;;22.13;3.90;;;;;;;8.47;53.85;99688.88;5074889;28;20071;-74
2021/12/01 01:08:05;;;;;;;27.77;2.88;;;;;;;8.59;53.81;99692.22;5077533;28;20048;-75
2021/12/01 01:18:40;;;;;;;20.77;3.22;;;;;;;8.25;54.80;99681.28;5075647;28;20044;-74
2021/12/01 01:21:08;;;;;;;24.52;2.70;;;;;;;8.34;54.83;99678.56;5076094;28;20447;-74
2021/12/01 01:23:36;;;;;;;20.27;2.88;;;;;;;8.33;55.00;99668.09;5076561;28;20047;-74
2021/12/01 01:26:05;;;;;;;20.02;2.88;;;;;;;8.44;54.89;99665.28;5075384;28;20089;-74
2021/12/01 01:28:32;;;;;;;21.40;3.30;;;;;;;8.28;55.11;99663.22;5075247;28;20090;-74
2021/12/01 01:31:00;;;;;;;14.50;2.45;;;;;;;8.29;55.41;99662.25;5076416;28;20074;-74
2021/12/01 01:33:27;;;;;;;22.35;3.17;;;;;;;8.40;54.91;99660.41;5076188;28;20040;-74
2021/12/01 01:35:54;;;;;;;15.27;3.25;;;;;;;8.41;55.46;99654.13;5076586;28;20124;-74
2021/12/01 01:38:20;;;;;;;28.20;4.13;;;;;;;8.16;56.06;99656.41;5076711;28;20057;-74
2021/12/01 01:40:47;;;;;;;24.58;4.32;;;;;;;8.47;55.06;99646.41;5074932;28;20048;-74
2021/12/01 01:43:14;;;;;;;20.58;3.72;;;;;;;7.85;56.63;99635.41;5076221;28;20032;-74
2021/12/01 01:45:41;;;;;;;15.02;2.95;;;;;;;8.46;55.56;99639.41;5074610;28;20393;-74
2021/12/01 01:48:13;;;;;;;25.10;4.18;;;;;;;8.19;55.85;99629.56;5074986;28;20044;-73
2021/12/01 01:50:42;;;;;;;27.23;3.33;;;;;;;7.89;57.29;99622.69;5075167;28;20108;-74
2021/12/01 01:53:17;;;;;;;28.05;4.68;;;;;;;8.24;56.06;99622.03;5074579;28;20048;-75
2021/12/01 01:55:46;;;;;;;18.17;2.65;;;;;;;7.93;57.17;99618.78;5072972;28;20105;-73
2021/12/01 01:58:14;;;;;;;28.23;3.20;;;;;;;8.19;56.65;99612.81;5075045;28;20127;-73
2021/12/01 02:00:51;;;;;;;24.98;3.80;;;;;;;8.23;56.34;99599.09;5076089;28;20055;-75
2021/12/01 02:03:21;;;;;;;22.27;3.70;;;;;;;8.25;56.26;99591.00;5076935;28;20476;-74
2021/12/01 02:09:34;;;;;;;29.95;2.90;;;;;;;8.26;55.95;99588.19;5077385;28;20047;-74
2021/12/01 02:12:02;;;;;;;29.27;3.47;;;;;;;8.47;55.89;99576.50;5067238;28;20052;-74
2021/12/01 02:14:30;;;;;;;19.05;3.67;;;;;;;8.40;55.90;99572.78;5082014;28;20041;-74
2021/12/01 02:16:57;;;;;;;26.25;3.75;;;;;;;8.13;56.63;99566.44;5076374;28;20045;-74
2021/12/01 02:19:26;;;;;;;25.27;3.95;;;;;;;8.22;56.51;99564.75;5075846;28;20043;-75
2021/12/01 02:21:52;;;;;;;24.95;4.30;;;;;;;8.24;56.39;99560.09;5074597;28;20041;-74
2021/12/01 02:24:23;;;;;;;30.25;3.38;;;;;;;8.07;56.64;99540.50;5075702;28;20124;-74
2021/12/01 02:26:51;;;;;;;26.15;3.30;;;;;;;8.02;57.31;99538.28;5075147;28;20381;-75
2021/12/01 02:29:26;;;;;;;26.95;3.88;;;;;;;7.75;58.69;99540.91;5075228;28;20071;-74
2021/12/01 02:31:55;;;;;;;28.92;3.30;;;;;;;8.10;57.92;99540.19;5075931;28;20041;-74
2021/12/01 02:34:24;;;;;;;22.85;3.55;;;;;;;7.91;57.70;99527.88;5075406;28;20481;-74
2021/12/01 02:36:57;;;;;;;36.33;5.68;;;;;;;7.84;58.60;99524.97;5075776;28;20090;-74
2021/12/01 02:39:24;;;;;;;25.05;2.70;;;;;;;7.92;58.35;99518.91;5076467;28;20067;-74
2021/12/01 02:41:54;;;;;;;32.65;3.75;;;;;;;7.62;59.21;99520.88;5075415;28;20151;-74
2021/12/01 02:44:21;;;;;;;22.17;3.85;;;;;;;7.83;58.89;99511.84;5075334;28;20408;-75
2021/12/01 02:46:48;;;;;;;31.42;3.53;;;;;;;8.18;57.84;99495.19;5076728;28;22191;-74
2021/12/01 02:49:22;;;;;;;25.98;3.63;;;;;;;7.83;58.54;99499.44;5075950;28;20052;-74
2021/12/01 02:51:52;;;;;;;29.45;3.65;;;;;;;8.00;58.13;99496.94;5075538;28;20060;-74
2021/12/01 02:54:19;;;;;;;27.30;3.55;;;;;;;8.04;58.70;99498.34;5075516;28;20097;-73
2021/12/01 02:56:51;;;;;;;25.20;3.47;;;;;;;7.81;59.32;99496.06;5074933;28;20076;-75
2021/12/01 02:59:18;;;;;;;24.83;3.30;;;;;;;7.54;59.91;99490.75;5074559;28;20448;-74
2021/12/01 03:01:45;;;;;;;18.95;3.42;;;;;;;7.52;60.36;99482.09;5073327;28;20075;-74
2021/12/01 03:04:14;;;;;;;23.38;4.28;;;;;;;7.70;59.88;99480.34;5074219;28;20064;-74
2021/12/01 03:06:46;;;;;;;29.25;3.00;;;;;;;7.67;60.28;99472.69;5073190;28;20050;-74
2021/12/01 03:09:14;;;;;;;;;;;;;;;7.78;60.37;99461.88;5074099;28;20076;-74
2021/12/01 03:11:44;;;;;;;24.67;3.90;;;;;;;7.70;60.35;99463.59;5073432;28;19928;-74
2021/12/01 03:14:14;;;;;;;27.40;3.58;;;;;;;7.62;60.41;99459.03;5075170;28;20044;-74
2021/12/01 03:16:42;;;;;;;30.73;3.75;;;;;;;7.75;60.21;99456.03;5075202;28;20404;-74
2021/12/01 03:19:09;;;;;;;23.50;3.08;;;;;;;7.48;60.57;99455.06;5075286;28;20048;-74
2021/12/01 03:21:40;;;;;;;27.73;4.07;;;;;;;7.23;61.85;99453.03;5074933;28;20052;-74
2021/12/01 03:24:08;;;;;;;27.20;2.85;;;;;;;7.86;59.83;99447.88;5075567;28;20040;-74
2021/12/01 03:26:36;;;;;;;20.52;2.95;;;;;;;7.26;61.34;99448.28;5075685;28;20481;-74
2021/12/01 03:29:05;;;;;;;32.92;3.65;;;;;;;7.27;61.65;99444.63;5074919;28;20459;-74
2021/12/01 03:31:32;;;;;;;30.60;3.88;;;;;;;7.33;61.89;99444.06;5075612;28;20075;-74
2021/12/01 03:33:58;;;;;;;24.88;3.10;;;;;;;7.39;62.09;99448.78;5076015;28;20503;-74
2021/12/01 03:36:25;;;;;;;29.65;3.35;;;;;;;7.49;61.44;99437.31;5073468;28;20056;-74
2021/12/01 03:38:51;;;;;;;29.13;3.60;;;;;;;7.38;62.03;99433.03;5072302;28;20064;-73
2021/12/01 03:41:18;;;;;;;22.13;3.75;;;;;;;7.61;61.98;99428.19;5073573;28;20087;-74
2021/12/01 03:43:44;;;;;;;29.65;3.33;;;;;;;7.74;61.29;99422.53;5073013;28;20068;-76
2021/12/01 03:46:11;;;;;;;27.65;3.85;;;;;;;7.75;61.43;99411.75;5072446;28;20083;-74
2021/12/01 03:48:38;;;;;;;34.78;3.85;;;;;;;7.70;60.95;99410.56;5072517;28;20480;-74
2021/12/01 03:51:04;;;;;;;20.30;3.38;;;;;;;7.67;61.14;99403.72;5073762;28;20532;-74
2021/12/01 03:53:31;;;;;;;33.20;5.05;;;;;;;7.90;60.92;99400.66;5074071;28;20052;-74
2021/12/01 03:55:59;;;;;;;26.15;3.28;;;;;;;7.76;60.83;99386.94;5075528;28;20041;-74
2021/12/01 03:58:25;;;;;;;21.42;3.78;;;;;;;7.71;61.57;99386.53;5077614;28;20109;-74
2021/12/01 04:00:52;;;;;;;27.13;3.78;;;;;;;7.65;61.30;99396.88;5078304;28;20063;-74
2021/12/01 04:03:18;;;;;;;26.55;3.83;;;;;;;7.49;62.18;99389.59;5077056;28;20119;-74
2021/12/01 04:05:46;;;;;;;21.02;3.53;;;;;;;7.59;61.61;99382.44;5077169;28;20111;-73
2021/12/01 04:08:12;;;;;;;27.30;2.88;;;;;;;7.82;61.41;99386.31;5078223;28;20080;-73
2021/12/01 04:10:39;;;;;;;26.40;3.45;;;;;;;7.70;60.81;99376.91;5077784;28;20064;-74
2021/12/01 04:13:05;;;;;;;25.10;4.00;;;;;;;7.73;61.94;99371.31;5077518;28;20060;-74
2021/12/01 04:15:32;;;;;;;17.10;3.20;;;;;;;7.95;60.89;99370.03;5076660;28;20561;-73
2021/12/01 04:17:59;;;;;;;19.02;3.63;;;;;;;7.26;62.27;99358.16;5077822;28;20068;-74
2021/12/01 04:20:26;;;;;;;27.13;4.25;;;;;;;7.63;61.76;99351.97;5077755;28;20401;-74
2021/12/01 04:22:53;;;;;;;39.80;3.75;;;;;;;7.61;61.97;99353.91;5077753;28;20048;-74
2021/12/01 04:25:20;;;;;;;31.52;3.85;;;;;;;7.90;61.05;99343.13;5077967;28;20044;-74
2021/12/01 04:27:47;;;;;;;19.23;3.55;;;;;;;7.62;62.38;99350.31;5077936;28;20048;-74
2021/12/01 04:30:15;;;;;;;28.77;3.58;;;;;;;7.43;62.64;99347.75;5076896;28;20068;-75
2021/12/01 04:32:42;;;;;;;21.30;3.95;;;;;;;7.51;63.12;99334.59;5078996;28;20048;-74
2021/12/01 04:35:08;;;;;;;27.90;3.28;;;;;;;7.26;63.51;99323.69;5077975;28;20048;-73
2021/12/01 04:37:36;;;;;;;21.25;3.55;;;;;;;7.35;63.54;99328.13;5078268;28;20071;-73
2021/12/01 04:40:05;;;;;;;34.90;4.30;;;;;;;7.41;63.94;99329.31;5076149;28;20550;-73
2021/12/01 04:42:32;;;;;;;23.50;3.45;;;;;;;7.14;64.66;99312.47;5076664;28;20166;-73
2021/12/01 04:44:59;;;;;;;23.60;4.03;;;;;;;7.25;64.64;99300.84;5077316;28;20048;-73
2021/12/01 04:47:29;;;;;;;25.95;4.72;;;;;;;7.32;64.94;99293.97;5077142;28;20041;-73
2021/12/01 04:49:57;;;;;;;26.05;4.00;;;;;;;7.08;65.61;99289.19;5077661;28;20041;-73
2021/12/01 04:52:23;;;;;;;32.35;4.93;;;;;;;7.31;64.70;99289.66;5078148;28;20045;-73
2021/12/01 04:54:50;;;;;;;29.15;4.50;;;;;;;7.27;65.51;99280.28;5077201;28;20040;-73
2021/12/01 04:57:17;;;;;;;33.13;4.57;;;;;;;7.37;65.30;99272.28;5077262;28;20150;-73
2021/12/01 04:59:44;;;;;;;29.50;4.47;;;;;;;7.34;65.38;99270.78;5076157;28;20040;-74
2021/12/01 05:02:11;;;;;;;32.90;6.00;;;;;;;7.30;65.84;99260.63;5075428;28;20504;-74
2021/12/01 05:04:38;;;;;;;22.08;3.85;;;;;;;7.22;65.83;99258.72;5075087;28;20044;-74
2021/12/01 05:07:04;;;;;;;30.75;4.90;;;;;;;7.26;65.81;99246.00;5073651;28;20098;-74
2021/12/01 05:09:31;;;;;;;22.23;3.85;;;;;;;7.37;65.81;99235.19;5076581;28;20067;-74
2021/12/01 05:11:57;;;;;;;33.92;3.78;;;;;;;7.07;66.12;99231.91;5076821;28;20075;-74
2021/12/01 05:14:25;;;;;;;34.83;3.70;;;;;;;7.42;65.63;99224.97;5075891;28;20041;-74
2021/12/01 05:16:52;;;;;;;22.23;3.08;;;;;;;7.43;65.47;99220.50;5076279;28;20056;-74
2021/12/01 05:19:19;;;;;;;25.42;3.50;;;;;;;7.36;66.42;99212.31;5075909;28;20052;-74
2021/12/01 05:21:45;;;;;;;27.70;4.20;;;;;;;7.20;66.59;99210.31;5077043;28;20060;-74
2021/12/01 05:24:12;;;;;;;23.67;3.72;;;;;;;7.49;65.90;99207.47;5076118;28;20424;-74
2021/12/01 05:26:39;;;;;;;25.55;4.97;;;;;;;7.11;67.30;99203.28;5074364;28;20040;-74
2021/12/01 05:29:05;;;;;;;26.63;4.25;;;;;;;7.26;66.64;99190.34;5075103;28;20110;-74
2021/12/01 05:31:32;;;;;;;31.40;3.85;;;;;;;7.31;66.42;99183.63;5074781;28;20058;-74
2021/12/01 05:33:59;;;;;;;27.42;3.58;;;;;;;7.40;66.26;99181.88;5074543;28;20439;-74
2021/12/01 05:36:26;;;;;;;32.20;3.90;;;;;;;6.99;68.61;99183.28;5075398;28;20460;-74
2021/12/01 05:38:53;;;;;;;33.28;3.97;;;;;;;7.11;68.71;99161.72;5074518;28;20060;-73
2021/12/01 05:41:19;;;;;;;24.70;4.28;;;;;;;7.55;67.16;99163.59;5075702;28;20127;-73
2021/12/01 05:43:46;;;;;;;28.25;3.97;;;;;;;7.17;68.77;99155.00;5074486;28;20044;-73
2021/12/01 05:46:13;;;;;;;24.88;4.00;;;;;;;7.13;68.76;99148.31;5074630;28;20087;-73
2021/12/01 05:48:40;;;;;;;26.80;5.13;;;;;;;7.09;69.04;99134.53;5075727;28;20135;-73
2021/12/01 05:51:07;;;;;;;22.23;4.13;;;;;;;6.86;69.83;99133.31;5075256;28;20071;-73
2021/12/01 05:53:34;;;;;;;25.73;4.53;;;;;;;7.34;69.38;99122.34;5074611;28;20048;-73
2021/12/01 05:56:00;;;;;;;20.50;4.90;;;;;;;6.76;70.83;99096.31;5074397;28;20472;-73
2021/12/01 05:58:27;;;;;;;19.58;4.93;;;;;;;7.13;70.41;99097.97;5075129;28;20080;-73
2021/12/01 06:00:54;;;;;;;23.48;4.32;;;;;;;7.43;68.84;99082.66;5073978;28;20514;-73
2021/12/01 06:03:20;;;;;;;22.73;4.22;;;;;;;7.77;68.33;99075.59;5075043;28;20108;-73
2021/12/01 06:05:47;;;;;;;27.10;4.93;;;;;;;7.06;70.17;99078.38;5075216;28;20037;-73
2021/12/01 06:08:14;;;;;;;20.23;4.50;;;;;;;7.40;69.53;99070.53;5076046;28;20373;-73
2021/12/01 06:10:41;;;;;;;33.97;5.82;;;;;;;7.28;69.78;99066.47;5076551;28;20075;-73
2021/12/01 06:13:09;;;;;;;29.02;5.07;;;;;;;6.91;71.28;99063.00;5078096;28;20067;-73
2021/12/01 06:15:36;;;;;;;18.05;4.97;;;;;;;6.75;71.88;99060.19;5079196;28;20124;-73
2021/12/01 06:18:04;;;;;;;20.13;4.80;;;;;;;7.29;70.15;99068.97;5074330;28;20391;-73
2021/12/01 06:20:31;;;;;;;15.93;4.60;;;;;;;7.49;69.68;99058.19;5076581;28;20041;-73
2021/12/01 06:22:57;;;;;;;20.48;5.35;;;;;;;7.20;70.33;99046.00;5074025;28;20440;-73
2021/12/01 06:25:24;;;;;;;18.20;5.22;;;;;;;7.72;69.09;99048.69;5075179;28;20071;-73
2021/12/01 06:27:54;;;;;;;30.90;5.93;;;;;;;7.31;70.18;99044.97;5074499;28;20044;-73
2021/12/01 06:30:22;;;;;;;17.25;5.13;;;;;;;7.64;69.16;99038.03;5073114;28;20101;-73
2021/12/01 06:32:52;;;;;;;16.33;4.60;;;;;;;7.73;69.36;99033.63;5075595;28;20072;-73
2021/12/01 06:35:19;;;;;;;17.30;4.95;;;;;;;7.31;69.88;99019.28;5074919;28;20466;-73
2021/12/01 06:37:47;;;;;;;18.75;4.75;;;;;;;7.32;69.81;99023.59;5075895;28;20045;-73
2021/12/01 06:40:14;;;;;;;16.80;5.47;;;;;;;7.08;71.53;99010.16;5077137;28;20438;-72
2021/12/01 06:42:41;;;;;;;19.55;5.45;;;;;;;7.77;68.78;99008.44;5075903;28;20071;-72
2021/12/01 06:45:09;;;;;;;16.48;5.72;;;;;;;7.70;69.49;99000.28;5076976;28;20071;-73
2021/12/01 06:47:36;;;;;;;15.60;5.65;;;;;;;6.90;71.95;98986.34;5075856;28;20075;-72
2021/12/01 06:50:07;;;;;;;17.77;5.93;;;;;;;7.60;70.25;98987.13;5076716;28;20044;-72
2021/12/01 06:52:33;;;;;;;19.92;5.63;;;;;;;7.77;69.45;98993.34;5074119;28;20102;-72
2021/12/01 06:55:02;;;;;;;15.32;6.25;;;;;;;8.02;68.13;98993.47;5074443;28;20071;-72
2021/12/01 06:57:29;;;;;;;17.63;6.10;;;;;;;7.62;69.79;98981.69;5074441;28;20068;-72
2021/12/01 06:59:56;;;;;;;12.35;5.97;;;;;;;7.18;72.30;98968.50;5075491;28;20064;-72
2021/12/01 07:02:22;;;;;;;21.40;7.05;;;;;;;7.77;69.75;98974.78;5075986;28;20248;-71
2021/12/01 07:04:49;;;;;;;12.68;6.68;;;;;;;7.94;69.11;98974.88;5076025;28;20068;-72
2021/12/01 07:07:15;;;;;;;16.40;6.38;;;;;;;9.25;65.04;98962.59;5074454;28;20487;-72
2021/12/01 07:09:44;;;;;;;16.23;7.43;;;;;;;9.14;65.42;98955.75;5075063;28;20052;-71
2021/12/01 07:12:12;;;;;;;16.40;7.32;;;;;;;9.06;65.13;98958.44;5076829;28;20044;-72
2021/12/01 07:14:39;;;;;;;14.63;7.47;;;;;;;9.10;65.45;98954.44;5076416;28;20067;-72
2021/12/01 07:17:06;;;;;;;18.40;8.52;;;;;;;9.05;66.16;98951.47;5076663;28;20461;-71
2021/12/01 07:19:33;;;;;;;17.70;9.43;;;;;;;9.16;65.85;98940.47;5076457;28;20396;-71
2021/12/01 07:22:00;;;;;;;23.25;8.98;;;;;;;8.85;66.87;98934.22;5074972;28;20102;-71
2021/12/01 07:24:29;;;;;;;17.35;9.70;;;;;;;9.07;66.17;98925.53;5074740;28;20048;-71
2021/12/01 07:26:56;;;;;;;19.73;10.07;;;;;;;9.34;65.38;98918.19;5073952;28;20071;-72
2021/12/01 07:29:22;;;;;;;18.05;9.77;;;;;;;9.35;65.34;98914.50;5074849;28;20117;-72
2021/12/01 07:31:49;;;;;;;22.17;10.40;;;;;;;9.42;65.38;98905.69;5078794;28;20443;-71
2021/12/01 07:34:16;;;;;;;17.45;10.95;;;;;;;9.46;65.76;98890.22;5078711;28;20049;-71
2021/12/01 07:36:42;;;;;;;20.17;11.68;;;;;;;9.52;65.67;98890.38;5080717;28;20472;-71
2021/12/01 07:39:09;;;;;;;18.25;11.88;;;;;;;9.52;66.44;98881.53;5080567;28;20041;-71
2021/12/01 07:41:35;;;;;;;20.38;12.93;;;;;;;9.38;66.48;98879.59;5077772;28;20127;-71
2021/12/01 07:44:02;;;;;;;22.55;12.07;;;;;;;9.57;66.67;98873.06;5079408;28;20064;-71
2021/12/01 07:46:28;;;;;;;16.85;11.07;;;;;;;9.59;66.13;98865.72;5079281;28;20059;-73
2021/12/01 07:48:55;;;;;;;17.27;12.32;;;;;;;10.05;65.39;98852.50;5078782;28;20036;-72
2021/12/01 07:51:21;;;;;;;17.27;11.65;;;;;;;9.59;66.22;98847.91;5079337;28;20508;-72
2021/12/01 07:53:49;;;;;;;19.48;12.65;;;;;;;9.87;65.78;98850.09;5079528;28;20043;-72
2021/12/01 07:56:16;;;;;;;18.80;11.55;;;;;;;9.60;66.99;98838.97;5079646;28;20110;-72
2021/12/01 07:58:42;;;;;;;14.63;10.93;;;;;;;9.87;66.73;98837.66;5079519;28;20040;-72
2021/12/01 08:01:09;;;;;;;15.93;11.30;;;;;;;9.54;68.03;98834.31;5078825;28;20189;-72
2021/12/01 08:03:36;;;;;;;16.30;11.90;;;;;;;9.81;67.33;98834.84;5077982;28;20040;-72
2021/12/01 08:06:02;;;;;;;16.25;12.38;;;;;;;10.02;66.97;98816.41;5078542;28;20380;-71
2021/12/01 08:08:29;;;;;;;17.38;12.85;;;;;;;10.17;66.52;98816.47;5078753;28;20052;-73
2021/12/01 08:10:56;;;;;;;18.92;12.93;;;;;;;9.93;66.79;98817.47;5078597;28;20102;-72
2021/12/01 08:13:22;;;;;;;18.85;12.85;;;;;;;10.52;65.59;98804.38;5079143;28;20067;-72
2021/12/01 08:15:50;;;;;;;17.48;13.82;;;;;;;10.10;66.56;98812.84;5078062;28;20510;-73
2021/12/01 08:18:18;;;;;;;18.83;13.95;;;;;;;10.58;65.75;98802.81;5078334;28;20077;-72
2021/12/01 08:20:45;;;;;;;17.73;13.07;;;;;;;10.02;66.55;98803.09;5078826;28;20047;-71
2021/12/01 08:23:12;;;;;;;15.93;12.65;;;;;;;10.44;65.77;98802.63;5078438;28;20045;-71
2021/12/01 08:25:39;;;;;;;17.15;12.73;;;;;;;9.98;67.28;98801.81;5079535;28;20045;-72
2021/12/01 08:28:06;;;;;;;17.75;13.10;;;;;;;10.08;67.20;98789.09;5080654;28;20055;-73
2021/12/01 08:30:33;;;;;;;17.27;11.65;;;;;;;10.23;66.21;98792.63;5080226;28;20128;-71
2021/12/01 08:33:01;;;;;;;16.58;11.93;;;;;;;10.19;66.97;98796.66;5078631;28;20480;-72
2021/12/01 08:35:28;;;;;;;14.85;11.52;;;;;;;10.44;65.75;98778.63;5081013;28;20050;-71
2021/12/01 08:37:55;;;;;;;18.10;12.10;;;;;;;10.19;66.79;98780.66;5078737;28;20052;-72
2021/12/01 08:40:22;;;;;;;16.63;12.10;;;;;;;9.98;67.10;98775.19;5079092;28;20052;-72
2021/12/01 08:42:48;;;;;;;14.32;11.63;;;;;;;10.36;66.04;98784.06;5076710;28;20063;-73
2021/12/01 08:45:17;;;;;;;16.17;11.68;;;;;;;10.69;65.77;98765.88;5077442;28;20131;-73
2021/12/01 08:47:44;;;;;;;16.08;10.82;;;;;;;10.23;66.39;98767.81;5078036;28;20049;-73
2021/12/01 08:50:11;;;;;;;14.57;10.45;;;;;;;10.45;66.21;98764.31;5077701;28;20060;-71
2021/12/01 08:52:39;;;;;;;11.68;9.77;;;;;;;10.12;67.28;98766.41;5077786;28;20127;-72
2021/12/01 08:55:05;;;;;;;11.90;9.50;;;;;;;10.01;66.97;98761.53;5077998;28;20060;-71
2021/12/01 08:57:32;;;;;;;12.63;9.35;;;;;;;10.39;66.39;98750.88;5079188;28;20036;-74
2021/12/01 08:59:59;;;;;;;11.43;9.18;;;;;;;10.18;66.74;98739.09;5078104;28;20074;-73
2021/12/01 09:02:26;;;;;;;13.25;9.05;;;;;;;10.48;65.86;98741.81;5081941;28;20075;-74
2021/12/01 09:04:52;;;;;;;9.25;7.72;;;;;;;10.24;66.64;98745.50;5078689;28;20144;-73
2021/12/01 09:07:20;;;;;;;8.57;7.55;;;;;;;10.46;65.34;98736.69;5079860;28;20070;-73
2021/12/01 09:09:47;;;;;;;9.35;7.38;;;;;;;10.25;66.22;98731.19;5080452;28;20044;-74
2021/12/01 09:12:25;;;;;;;9.07;7.43;;;;;;;10.85;64.90;98732.09;5075735;28;20052;-75
2021/12/01 09:15:03;;;;;;;9.00;7.00;;;;;;;10.63;65.36;98732.00;5089903;28;20073;-74
2021/12/01 09:17:30;;;;;;;7.20;5.78;;;;;;;10.79;65.10;98722.16;5079520;28;20052;-73
2021/12/01 09:20:02;;;;;;;6.75;5.35;;;;;;;10.63;65.54;98724.00;5081333;28;20064;-75
2021/12/01 09:22:29;;;;;;;10.07;5.22;;;;;;;10.42;65.98;98716.72;5079416;28;20052;-73
2021/12/01 09:24:56;;;;;;;6.47;5.28;;;;;;;11.02;64.13;98712.22;5077851;28;20044;-73
2021/12/01 09:27:23;;;;;;;7.50;4.25;;;;;;;10.65;64.93;98707.84;5079365;28;20465;-74
2021/12/01 09:29:51;;;;;;;6.50;4.15;;;;;;;10.53;65.23;98707.47;5079752;28;20454;-73
2021/12/01 09:32:19;;;;;;;5.85;4.20;;;;;;;10.53;65.34;98699.47;5071128;28;20127;-73
2021/12/01 09:34:48;;;;;;;5.43;4.30;;;;;;;10.69;65.13;98696.59;5079611;28;20062;-74
2021/12/01 09:37:16;;;;;;;5.25;3.33;;;;;;;10.86;64.33;98696.41;5081598;28;20048;-74
2021/12/01 09:39:44;;;;;;;4.70;3.65;;;;;;;10.55;65.28;98689.44;5079908;28;20485;-73
2021/12/01 09:42:12;;;;;;;4.75;3.28;;;;;;;10.90;63.82;98687.84;5081136;28;20092;-73
2021/12/01 09:44:39;;;;;;;5.47;3.78;;;;;;;10.51;64.70;98692.69;5080197;28;20050;-73
2021/12/01 09:47:06;;;;;;;5.35;3.50;;;;;;;10.87;63.29;98687.41;5081277;27;20067;-75
2021/12/01 09:49:34;;;;;;;6.70;3.33;;;;;;;10.52;64.66;98675.69;5078744;28;20051;-74
2021/12/01 09:52:02;;;;;;;4.68;3.10;;;;;;;11.04;63.61;98670.19;5069732;28;20044;-73
2021/12/01 09:54:28;;;;;;;4.30;3.50;;;;;;;11.24;62.76;98670.41;5075895;28;20053;-73
2021/12/01 09:56:55;;;;;;;7.28;3.20;;;;;;;10.95;63.46;98650.00;5077679;28;20053;-74
2021/12/01 09:59:22;;;;;;;5.07;2.92;;;;;;;10.65;64.64;98657.22;5071796;28;20492;-73
2021/12/01 10:01:49;;;;;;;5.40;3.67;;;;;;;10.73;64.18;98648.28;5080047;28;20135;-73
2021/12/01 10:04:16;;;;;;;4.75;3.15;;;;;;;10.70;63.78;98645.00;5076710;28;20048;-73
2021/12/01 10:06:42;;;;;;;6.25;3.35;;;;;;;11.07;63.37;98629.81;5077113;28;20072;-73
2021/12/01 10:09:10;;;;;;;4.10;3.38;;;;;;;11.02;63.37;98621.56;5057353;28;20055;-74
2021/12/01 10:11:41;;;;;;;4.95;3.20;;;;;;;11.19;62.83;98612.31;5058158;28;20040;-73
2021/12/01 10:14:21;;;;;;;4.60;3.15;;;;;;;11.27;62.81;98610.53;5058930;28;20099;-73
2021/12/01 10:16:52;;;;;;;6.25;3.20;;;;;;;11.01;63.27;98600.41;5058629;28;20558;-73
2021/12/01 10:19:19;;;;;;;3.97;2.80;;;;;;;10.86;63.36;98603.94;5078801;28;20097;-74
2021/12/01 10:21:51;;;;;;;6.05;3.55;;;;;;;11.30;62.60;98605.66;5080290;28;20044;-73
2021/12/01 10:24:21;;;;;;;3.47;2.92;;;;;;;11.19;62.44;98606.16;5077349;28;20058;-74
2021/12/01 10:26:57;;;;;;;4.68;3.03;;;;;;;11.36;62.18;98609.38;5073985;28;20048;-74
2021/12/01 10:29:33;;;;;;;6.30;3.10;;;;;;;11.28;62.27;98594.34;5077320;28;20520;-74
2021/12/01 10:32:15;;;;;;;6.90;3.45;;;;;;;11.37;62.31;98582.53;5079717;28;20047;-74
2021/12/01 10:34:46;;;;;;;4.75;3.50;;;;;;;11.12;62.96;98582.09;5079176;28;20051;-73
2021/12/01 10:37:30;;;;;;;4.68;3.78;;;;;;;10.89;63.91;98578.78;5078814;28;20079;-74
2021/12/01 10:40:11;;;;;;;7.43;3.60;;;;;;;10.96;63.28;98574.34;5078979;28;20407;-73
2021/12/01 10:43:07;;;;;;;6.50;3.83;;;;;;;10.91;63.84;98568.72;5070914;28;20452;-74
2021/12/01 10:45:38;;;;;;;4.47;3.80;;;;;;;10.69;64.32;98562.56;5076446;28;20045;-74
2021/12/01 10:48:07;;;;;;;10.40;4.05;;;;;;;11.16;63.10;98571.88;5079338;28;20044;-74
2021/12/01 10:50:39;;;;;;;7.95;4.07;;;;;;;11.30;62.82;98552.31;5084797;28;20071;-74
2021/12/01 10:53:19;;;;;;;5.55;3.53;;;;;;;10.90;63.85;98548.44;5079330;28;20043;-74
2021/12/01 10:55:52;;;;;;;8.40;4.03;;;;;;;10.86;63.86;98555.16;5079120;28;20044;-73
2021/12/01 10:58:31;;;;;;;5.00;3.97;;;;;;;10.97;63.91;98541.31;5076047;28;20041;-74
2021/12/01 11:01:00;;;;;;;10.15;3.95;;;;;;;10.82;63.99;98537.91;5076821;28;20094;-73
2021/12/01 11:03:30;;;;;;;5.20;3.63;;;;;;;10.79;64.49;98530.28;5077894;28;20082;-73
2021/12/01 11:06:10;;;;;;;5.60;4.25;;;;;;;11.00;63.77;98524.94;5077926;28;20048;-74
2021/12/01 11:08:40;;;;;;;5.65;4.53;;;;;;;11.26;63.62;98526.22;5077412;28;20075;-73
2021/12/01 11:11:09;;;;;;;4.57;3.25;;;;;;;10.47;65.55;98519.91;5077633;28;20400;-74
2021/12/01 11:13:39;;;;;;;6.50;3.85;;;;;;;10.79;64.18;98516.97;5078843;28;20068;-74
2021/12/01 11:16:13;;;;;;;6.30;3.63;;;;;;;10.52;65.37;98503.34;5075707;28;20056;-74
2021/12/01 11:18:52;;;;;;;7.75;3.58;;;;;;;10.79;64.57;98503.63;5077933;28;20114;-73
2021/12/01 11:21:23;;;;;;;5.78;4.00;;;;;;;10.83;63.95;98496.91;5077421;28;20044;-74
2021/12/01 11:23:53;;;;;;;4.65;3.28;;;;;;;10.62;64.59;98495.88;5078080;28;20051;-73
2021/12/01 11:26:23;;;;;;;4.72;3.25;;;;;;;10.56;65.04;98485.97;5078323;28;20048;-73
2021/12/01 11:28:52;;;;;;;4.32;3.28;;;;;;;11.03;63.54;98489.09;5078529;28;20480;-73
2021/12/01 11:31:25;;;;;;;3.85;3.13;;;;;;;10.95;63.66;98477.53;5078164;28;20068;-73
2021/12/01 11:33:55;;;;;;;6.82;3.53;;;;;;;10.99;63.65;98470.00;5077245;28;20582;-74
2021/12/01 11:36:26;;;;;;;3.50;2.83;;;;;;;10.61;63.88;98458.78;5078066;28;20048;-74
2021/12/01 11:38:56;;;;;;;5.15;3.15;;;;;;;10.44;64.92;98463.50;5077507;28;20093;-73
2021/12/01 11:41:22;;;;;;;4.90;3.38;;;;;;;10.98;63.25;98460.34;5079358;28;20071;-73
2021/12/01 11:43:55;;;;;;;;;;;;;;;10.72;63.93;98455.59;5077625;28;20052;-74
2021/12/01 11:46:22;;;;;;;3.33;2.60;;;;;;;10.78;63.51;98449.50;5083731;28;19927;-73
2021/12/01 11:48:54;;;;;;;6.78;3.00;;;;;;;10.92;62.93;98450.44;5095640;28;20106;-73